sensor_id;sensor_type;location;lat;lon;timestamp;P1;durP1;ratioP1;P2;durP2;ratioP2
77738;SDS011;66904;59.926;30.404;2023-02-28T00:01:41;0.82;;;0.38;;
77738;SDS011;66904;59.926;30.404;2023-02-28T00:06:42;0.45;;;0.22;;
77738;SDS011;66904;59.926;30.404;2023-02-28T00:11:42;0.77;;;0.30;;
77738;SDS011;66904;59.926;30.404;2023-02-28T00:16:43;0.88;;;0.40;;
77738;SDS011;66904;59.926;30.404;2023-02-28T00:21:43;0.50;;;0.20;;
77738;SDS011;66904;59.926;30.404;2023-02-28T00:26:44;0.82;;;0.32;;
77738;SDS011;66904;59.926;30.404;2023-02-28T00:31:44;0.70;;;0.20;;
77738;SDS011;66904;59.926;30.404;2023-02-28T00:42:38;1.08;;;0.30;;
77738;SDS011;66904;59.926;30.404;2023-02-28T00:47:39;0.30;;;0.17;;
77738;SDS011;66904;59.926;30.404;2023-02-28T00:58:36;0.60;;;0.30;;
77738;SDS011;66904;59.926;30.404;2023-02-28T01:03:37;0.85;;;0.30;;
77738;SDS011;66904;59.926;30.404;2023-02-28T01:08:38;0.55;;;0.32;;
77738;SDS011;66904;59.926;30.404;2023-02-28T01:13:38;0.70;;;0.30;;
77738;SDS011;66904;59.926;30.404;2023-02-28T01:18:39;0.47;;;0.20;;
77738;SDS011;66904;59.926;30.404;2023-02-28T01:23:43;0.70;;;0.40;;
77738;SDS011;66904;59.926;30.404;2023-02-28T01:28:50;0.77;;;0.22;;
77738;SDS011;66904;59.926;30.404;2023-02-28T01:34:10;1.00;;;0.30;;
77738;SDS011;66904;59.926;30.404;2023-02-28T01:50:26;0.73;;;0.30;;
77738;SDS011;66904;59.926;30.404;2023-02-28T01:56:05;0.68;;;0.30;;
77738;SDS011;66904;59.926;30.404;2023-02-28T02:01:09;0.80;;;0.20;;
77738;SDS011;66904;59.926;30.404;2023-02-28T02:06:28;1.10;;;0.40;;
77738;SDS011;66904;59.926;30.404;2023-02-28T02:11:54;1.13;;;0.50;;
77738;SDS011;66904;59.926;30.404;2023-02-28T02:17:23;0.88;;;0.40;;
77738;SDS011;66904;59.926;30.404;2023-02-28T02:40:09;1.02;;;0.40;;
77738;SDS011;66904;59.926;30.404;2023-02-28T02:51:17;1.88;;;0.47;;
77738;SDS011;66904;59.926;30.404;2023-02-28T02:56:21;0.77;;;0.35;;
77738;SDS011;66904;59.926;30.404;2023-02-28T03:01:26;0.82;;;0.30;;
77738;SDS011;66904;59.926;30.404;2023-02-28T03:06:29;1.48;;;0.50;;
77738;SDS011;66904;59.926;30.404;2023-02-28T03:11:38;1.05;;;0.43;;
77738;SDS011;66904;59.926;30.404;2023-02-28T03:16:49;1.35;;;0.47;;
77738;SDS011;66904;59.926;30.404;2023-02-28T03:39:02;0.80;;;0.45;;
77738;SDS011;66904;59.926;30.404;2023-02-28T03:44:45;2.08;;;0.60;;
77738;SDS011;66904;59.926;30.404;2023-02-28T03:50:08;0.98;;;0.50;;
77738;SDS011;66904;59.926;30.404;2023-02-28T03:55:23;0.90;;;0.40;;
77738;SDS011;66904;59.926;30.404;2023-02-28T04:01:43;1.20;;;0.57;;
77738;SDS011;66904;59.926;30.404;2023-02-28T04:06:31;0.93;;;0.40;;
77738;SDS011;66904;59.926;30.404;2023-02-28T04:11:43;0.88;;;0.30;;
77738;SDS011;66904;59.926;30.404;2023-02-28T04:16:45;0.88;;;0.30;;
77738;SDS011;66904;59.926;30.404;2023-02-28T04:21:50;1.40;;;0.47;;
77738;SDS011;66904;59.926;30.404;2023-02-28T04:26:52;0.80;;;0.40;;
77738;SDS011;66904;59.926;30.404;2023-02-28T04:31:55;1.30;;;0.50;;
77738;SDS011;66904;59.926;30.404;2023-02-28T04:36:57;0.93;;;0.40;;
77738;SDS011;66904;59.926;30.404;2023-02-28T04:42:00;0.65;;;0.30;;
77738;SDS011;66904;59.926;30.404;2023-02-28T04:47:00;0.40;;;0.30;;
77738;SDS011;66904;59.926;30.404;2023-02-28T04:52:01;0.88;;;0.25;;
77738;SDS011;66904;59.926;30.404;2023-02-28T04:57:01;3.80;;;1.50;;
77738;SDS011;66904;59.926;30.404;2023-02-28T05:02:02;4.80;;;1.95;;
77738;SDS011;66904;59.926;30.404;2023-02-28T05:07:09;3.95;;;1.52;;
77738;SDS011;66904;59.926;30.404;2023-02-28T05:17:19;2.47;;;1.00;;
77738;SDS011;66904;59.926;30.404;2023-02-28T05:22:19;2.00;;;0.90;;
77738;SDS011;66904;59.926;30.404;2023-02-28T05:27:20;2.55;;;1.08;;
77738;SDS011;66904;59.926;30.404;2023-02-28T05:32:21;2.05;;;0.82;;
77738;SDS011;66904;59.926;30.404;2023-02-28T05:37:21;1.52;;;0.68;;
77738;SDS011;66904;59.926;30.404;2023-02-28T05:42:34;1.23;;;0.57;;
77738;SDS011;66904;59.926;30.404;2023-02-28T05:47:44;1.10;;;0.50;;
77738;SDS011;66904;59.926;30.404;2023-02-28T05:52:48;1.17;;;0.55;;
77738;SDS011;66904;59.926;30.404;2023-02-28T05:57:49;0.88;;;0.50;;
77738;SDS011;66904;59.926;30.404;2023-02-28T06:03:08;1.40;;;0.50;;
77738;SDS011;66904;59.926;30.404;2023-02-28T06:08:08;0.85;;;0.32;;
77738;SDS011;66904;59.926;30.404;2023-02-28T06:13:09;0.90;;;0.50;;
77738;SDS011;66904;59.926;30.404;2023-02-28T06:18:09;0.85;;;0.40;;
77738;SDS011;66904;59.926;30.404;2023-02-28T06:23:13;1.17;;;0.40;;
77738;SDS011;66904;59.926;30.404;2023-02-28T06:28:28;1.40;;;0.30;;
77738;SDS011;66904;59.926;30.404;2023-02-28T06:33:29;1.02;;;0.52;;
77738;SDS011;66904;59.926;30.404;2023-02-28T06:38:30;0.45;;;0.45;;
77738;SDS011;66904;59.926;30.404;2023-02-28T06:43:32;0.40;;;0.30;;
77738;SDS011;66904;59.926;30.404;2023-02-28T06:48:35;0.30;;;0.20;;
77738;SDS011;66904;59.926;30.404;2023-02-28T06:53:36;1.50;;;0.30;;
77738;SDS011;66904;59.926;30.404;2023-02-28T06:58:37;1.67;;;0.20;;
77738;SDS011;66904;59.926;30.404;2023-02-28T07:03:51;3.28;;;0.30;;
77738;SDS011;66904;59.926;30.404;2023-02-28T07:08:54;1.20;;;0.20;;
77738;SDS011;66904;59.926;30.404;2023-02-28T07:13:55;1.10;;;0.43;;
77738;SDS011;66904;59.926;30.404;2023-02-28T07:18:56;2.08;;;0.20;;
77738;SDS011;66904;59.926;30.404;2023-02-28T07:23:57;1.03;;;0.30;;
77738;SDS011;66904;59.926;30.404;2023-02-28T07:28:57;1.02;;;0.20;;
77738;SDS011;66904;59.926;30.404;2023-02-28T07:33:58;1.98;;;0.20;;
77738;SDS011;66904;59.926;30.404;2023-02-28T07:38:58;1.67;;;0.30;;
77738;SDS011;66904;59.926;30.404;2023-02-28T07:43:59;0.10;;;0.10;;
77738;SDS011;66904;59.926;30.404;2023-02-28T07:49:00;1.25;;;0.40;;
77738;SDS011;66904;59.926;30.404;2023-02-28T07:54:02;1.48;;;0.20;;
77738;SDS011;66904;59.926;30.404;2023-02-28T07:59:05;0.90;;;0.47;;
77738;SDS011;66904;59.926;30.404;2023-02-28T08:04:06;1.70;;;0.35;;
77738;SDS011;66904;59.926;30.404;2023-02-28T08:09:08;1.23;;;0.38;;
77738;SDS011;66904;59.926;30.404;2023-02-28T08:14:11;1.52;;;0.30;;
77738;SDS011;66904;59.926;30.404;2023-02-28T08:19:15;0.77;;;0.25;;
77738;SDS011;66904;59.926;30.404;2023-02-28T08:24:16;1.08;;;0.20;;
77738;SDS011;66904;59.926;30.404;2023-02-28T08:29:16;0.63;;;0.20;;
77738;SDS011;66904;59.926;30.404;2023-02-28T08:34:17;0.55;;;0.10;;
77738;SDS011;66904;59.926;30.404;2023-02-28T08:39:18;0.70;;;0.28;;
77738;SDS011;66904;59.926;30.404;2023-02-28T08:44:20;0.55;;;0.28;;
77738;SDS011;66904;59.926;30.404;2023-02-28T08:49:20;1.00;;;0.38;;
77738;SDS011;66904;59.926;30.404;2023-02-28T08:54:20;0.45;;;0.10;;
77738;SDS011;66904;59.926;30.404;2023-02-28T08:59:22;1.33;;;0.60;;
77738;SDS011;66904;59.926;30.404;2023-02-28T09:04:23;2.22;;;0.30;;
77738;SDS011;66904;59.926;30.404;2023-02-28T09:09:24;0.50;;;0.10;;
77738;SDS011;66904;59.926;30.404;2023-02-28T09:14:24;2.83;;;0.30;;
77738;SDS011;66904;59.926;30.404;2023-02-28T09:19:34;0.47;;;0.22;;
77738;SDS011;66904;59.926;30.404;2023-02-28T09:24:40;1.60;;;0.32;;
77738;SDS011;66904;59.926;30.404;2023-02-28T09:29:41;0.43;;;0.30;;
77738;SDS011;66904;59.926;30.404;2023-02-28T09:34:41;1.00;;;0.30;;
77738;SDS011;66904;59.926;30.404;2023-02-28T09:39:41;0.60;;;0.40;;
77738;SDS011;66904;59.926;30.404;2023-02-28T09:44:43;0.55;;;0.25;;
77738;SDS011;66904;59.926;30.404;2023-02-28T09:49:48;0.55;;;0.20;;
77738;SDS011;66904;59.926;30.404;2023-02-28T09:54:49;1.90;;;0.30;;
77738;SDS011;66904;59.926;30.404;2023-02-28T10:10:23;0.20;;;0.20;;
77738;SDS011;66904;59.926;30.404;2023-02-28T10:15:38;0.43;;;0.10;;
77738;SDS011;66904;59.926;30.404;2023-02-28T10:20:39;1.08;;;0.22;;
77738;SDS011;66904;59.926;30.404;2023-02-28T10:25:44;1.15;;;0.25;;
77738;SDS011;66904;59.926;30.404;2023-02-28T10:31:11;0.22;;;0.03;;
77738;SDS011;66904;59.926;30.404;2023-02-28T10:36:19;3.05;;;0.30;;
77738;SDS011;66904;59.926;30.404;2023-02-28T10:41:28;2.70;;;0.15;;
77738;SDS011;66904;59.926;30.404;2023-02-28T10:46:34;0.38;;;0.13;;
77738;SDS011;66904;59.926;30.404;2023-02-28T10:51:39;0.73;;;0.28;;
77738;SDS011;66904;59.926;30.404;2023-02-28T10:56:40;2.22;;;0.50;;
77738;SDS011;66904;59.926;30.404;2023-02-28T11:01:45;1.73;;;0.45;;
77738;SDS011;66904;59.926;30.404;2023-02-28T11:07:00;1.13;;;0.30;;
77738;SDS011;66904;59.926;30.404;2023-02-28T11:12:02;1.48;;;0.30;;
77738;SDS011;66904;59.926;30.404;2023-02-28T11:17:21;0.80;;;0.22;;
77738;SDS011;66904;59.926;30.404;2023-02-28T11:22:27;5.75;;;0.40;;
77738;SDS011;66904;59.926;30.404;2023-02-28T11:32:31;1.10;;;0.10;;
77738;SDS011;66904;59.926;30.404;2023-02-28T11:37:31;1.52;;;0.20;;
77738;SDS011;66904;59.926;30.404;2023-02-28T11:58:31;0.20;;;0.10;;
77738;SDS011;66904;59.926;30.404;2023-02-28T12:09:00;0.80;;;0.20;;
77738;SDS011;66904;59.926;30.404;2023-02-28T12:25:01;0.65;;;0.30;;
77738;SDS011;66904;59.926;30.404;2023-02-28T12:35:38;0.50;;;0.03;;
77738;SDS011;66904;59.926;30.404;2023-02-28T12:45:50;0.30;;;0.20;;
77738;SDS011;66904;59.926;30.404;2023-02-28T12:50:55;0.47;;;0.20;;
77738;SDS011;66904;59.926;30.404;2023-02-28T13:01:22;0.40;;;0.17;;
77738;SDS011;66904;59.926;30.404;2023-02-28T13:17:09;0.28;;;0.10;;
77738;SDS011;66904;59.926;30.404;2023-02-28T13:27:40;0.43;;;0.22;;
77738;SDS011;66904;59.926;30.404;2023-02-28T13:32:41;3.00;;;0.30;;
77738;SDS011;66904;59.926;30.404;2023-02-28T13:37:43;1.02;;;0.28;;
77738;SDS011;66904;59.926;30.404;2023-02-28T13:58:27;0.50;;;0.10;;
77738;SDS011;66904;59.926;30.404;2023-02-28T14:09:06;0.45;;;0.20;;
77738;SDS011;66904;59.926;30.404;2023-02-28T14:19:36;0.70;;;0.55;;
77738;SDS011;66904;59.926;30.404;2023-02-28T14:29:44;0.55;;;0.17;;
77738;SDS011;66904;59.926;30.404;2023-02-28T14:40:20;1.25;;;0.30;;
77738;SDS011;66904;59.926;30.404;2023-02-28T14:45:25;0.60;;;0.10;;
77738;SDS011;66904;59.926;30.404;2023-02-28T14:50:31;0.40;;;0.10;;
77738;SDS011;66904;59.926;30.404;2023-02-28T14:55:36;1.60;;;0.15;;
77738;SDS011;66904;59.926;30.404;2023-02-28T15:00:53;0.10;;;0.10;;
77738;SDS011;66904;59.926;30.404;2023-02-28T15:06:22;0.70;;;0.70;;
77738;SDS011;66904;59.926;30.404;2023-02-28T15:11:23;0.40;;;0.10;;
77738;SDS011;66904;59.926;30.404;2023-02-28T15:16:46;0.50;;;0.13;;
77738;SDS011;66904;59.926;30.404;2023-02-28T15:21:54;0.50;;;0.20;;
77738;SDS011;66904;59.926;30.404;2023-02-28T15:32:31;0.17;;;0.03;;
77738;SDS011;66904;59.926;30.404;2023-02-28T15:43:28;0.22;;;0.13;;
77738;SDS011;66904;59.926;30.404;2023-02-28T15:53:38;3.15;;;0.20;;
77738;SDS011;66904;59.926;30.404;2023-02-28T15:59:01;0.20;;;0.10;;
77738;SDS011;66904;59.926;30.404;2023-02-28T16:04:17;0.65;;;0.15;;
77738;SDS011;66904;59.926;30.404;2023-02-28T16:09:19;0.30;;;0.30;;
77738;SDS011;66904;59.926;30.404;2023-02-28T16:14:21;0.57;;;0.03;;
77738;SDS011;66904;59.926;30.404;2023-02-28T16:19:32;0.32;;;0.10;;
77738;SDS011;66904;59.926;30.404;2023-02-28T16:24:33;0.40;;;0.10;;
77738;SDS011;66904;59.926;30.404;2023-02-28T16:29:34;0.80;;;0.17;;
77738;SDS011;66904;59.926;30.404;2023-02-28T16:34:36;0.25;;;0.10;;
77738;SDS011;66904;59.926;30.404;2023-02-28T16:39:37;0.95;;;0.10;;
77738;SDS011;66904;59.926;30.404;2023-02-28T16:44:38;0.50;;;0.20;;
77738;SDS011;66904;59.926;30.404;2023-02-28T16:49:38;1.27;;;0.28;;
77738;SDS011;66904;59.926;30.404;2023-02-28T16:54:42;2.47;;;0.30;;
77738;SDS011;66904;59.926;30.404;2023-02-28T16:59:43;3.75;;;0.60;;
77738;SDS011;66904;59.926;30.404;2023-02-28T17:04:44;3.67;;;1.23;;
77738;SDS011;66904;59.926;30.404;2023-02-28T17:09:46;4.78;;;1.08;;
77738;SDS011;66904;59.926;30.404;2023-02-28T17:14:47;4.85;;;0.98;;
77738;SDS011;66904;59.926;30.404;2023-02-28T17:19:47;4.50;;;0.80;;
77738;SDS011;66904;59.926;30.404;2023-02-28T17:24:48;3.83;;;0.95;;
77738;SDS011;66904;59.926;30.404;2023-02-28T17:29:49;3.17;;;0.63;;
77738;SDS011;66904;59.926;30.404;2023-02-28T17:34:50;1.73;;;1.13;;
77738;SDS011;66904;59.926;30.404;2023-02-28T17:39:51;1.75;;;0.50;;
77738;SDS011;66904;59.926;30.404;2023-02-28T17:44:51;1.40;;;0.40;;
77738;SDS011;66904;59.926;30.404;2023-02-28T17:49:52;1.27;;;0.52;;
77738;SDS011;66904;59.926;30.404;2023-02-28T17:54:54;3.10;;;0.40;;
77738;SDS011;66904;59.926;30.404;2023-02-28T17:59:54;2.10;;;0.60;;
77738;SDS011;66904;59.926;30.404;2023-02-28T18:04:55;1.00;;;0.38;;
77738;SDS011;66904;59.926;30.404;2023-02-28T18:09:57;1.77;;;0.43;;
77738;SDS011;66904;59.926;30.404;2023-02-28T18:15:00;2.15;;;0.57;;
77738;SDS011;66904;59.926;30.404;2023-02-28T18:20:00;1.20;;;0.93;;
77738;SDS011;66904;59.926;30.404;2023-02-28T18:25:02;2.47;;;0.77;;
77738;SDS011;66904;59.926;30.404;2023-02-28T18:30:04;1.10;;;0.60;;
77738;SDS011;66904;59.926;30.404;2023-02-28T18:35:05;1.05;;;0.52;;
77738;SDS011;66904;59.926;30.404;2023-02-28T18:40:06;0.52;;;0.30;;
77738;SDS011;66904;59.926;30.404;2023-02-28T18:45:08;0.85;;;0.43;;
77738;SDS011;66904;59.926;30.404;2023-02-28T18:50:09;1.10;;;0.55;;
77738;SDS011;66904;59.926;30.404;2023-02-28T18:55:10;2.00;;;0.77;;
77738;SDS011;66904;59.926;30.404;2023-02-28T19:00:14;2.10;;;0.60;;
77738;SDS011;66904;59.926;30.404;2023-02-28T19:05:18;1.20;;;0.60;;
77738;SDS011;66904;59.926;30.404;2023-02-28T19:10:19;1.70;;;0.32;;
77738;SDS011;66904;59.926;30.404;2023-02-28T19:15:20;0.70;;;0.38;;
77738;SDS011;66904;59.926;30.404;2023-02-28T19:20:21;1.75;;;0.57;;
77738;SDS011;66904;59.926;30.404;2023-02-28T19:25:21;1.27;;;0.32;;
77738;SDS011;66904;59.926;30.404;2023-02-28T19:30:23;2.92;;;0.47;;
77738;SDS011;66904;59.926;30.404;2023-02-28T19:35:23;2.80;;;0.50;;
77738;SDS011;66904;59.926;30.404;2023-02-28T19:40:24;3.15;;;0.20;;
77738;SDS011;66904;59.926;30.404;2023-02-28T19:45:24;1.38;;;0.20;;
77738;SDS011;66904;59.926;30.404;2023-02-28T19:50:25;2.83;;;0.32;;
77738;SDS011;66904;59.926;30.404;2023-02-28T19:55:26;0.63;;;0.40;;
77738;SDS011;66904;59.926;30.404;2023-02-28T20:00:29;0.73;;;0.40;;
77738;SDS011;66904;59.926;30.404;2023-02-28T20:06:08;0.73;;;0.28;;
77738;SDS011;66904;59.926;30.404;2023-02-28T20:11:13;1.30;;;0.80;;
77738;SDS011;66904;59.926;30.404;2023-02-28T20:16:16;0.73;;;0.28;;
77738;SDS011;66904;59.926;30.404;2023-02-28T20:21:17;1.15;;;0.47;;
77738;SDS011;66904;59.926;30.404;2023-02-28T20:26:17;0.80;;;0.50;;
77738;SDS011;66904;59.926;30.404;2023-02-28T20:31:20;1.23;;;0.40;;
77738;SDS011;66904;59.926;30.404;2023-02-28T20:36:22;3.05;;;0.95;;
77738;SDS011;66904;59.926;30.404;2023-02-28T20:41:23;2.17;;;0.70;;
77738;SDS011;66904;59.926;30.404;2023-02-28T20:46:24;1.42;;;0.70;;
77738;SDS011;66904;59.926;30.404;2023-02-28T20:51:25;1.45;;;0.52;;
77738;SDS011;66904;59.926;30.404;2023-02-28T20:56:26;2.38;;;0.57;;
77738;SDS011;66904;59.926;30.404;2023-02-28T21:01:27;1.15;;;0.30;;
77738;SDS011;66904;59.926;30.404;2023-02-28T21:06:29;1.60;;;0.52;;
77738;SDS011;66904;59.926;30.404;2023-02-28T21:11:33;0.60;;;0.38;;
77738;SDS011;66904;59.926;30.404;2023-02-28T21:16:43;0.95;;;0.35;;
77738;SDS011;66904;59.926;30.404;2023-02-28T21:21:45;0.52;;;0.38;;
77738;SDS011;66904;59.926;30.404;2023-02-28T21:26:48;3.15;;;0.30;;
77738;SDS011;66904;59.926;30.404;2023-02-28T21:31:49;1.17;;;0.25;;
77738;SDS011;66904;59.926;30.404;2023-02-28T21:36:51;0.75;;;0.30;;
77738;SDS011;66904;59.926;30.404;2023-02-28T21:41:53;1.38;;;0.50;;
77738;SDS011;66904;59.926;30.404;2023-02-28T21:46:55;1.23;;;0.20;;
77738;SDS011;66904;59.926;30.404;2023-02-28T21:51:59;0.85;;;0.30;;
77738;SDS011;66904;59.926;30.404;2023-02-28T21:57:00;0.63;;;0.20;;
77738;SDS011;66904;59.926;30.404;2023-02-28T22:02:00;0.77;;;0.20;;
77738;SDS011;66904;59.926;30.404;2023-02-28T22:07:01;2.00;;;0.30;;
77738;SDS011;66904;59.926;30.404;2023-02-28T22:12:02;0.82;;;0.20;;
77738;SDS011;66904;59.926;30.404;2023-02-28T22:17:03;1.60;;;0.50;;
77738;SDS011;66904;59.926;30.404;2023-02-28T22:22:03;0.77;;;0.30;;
77738;SDS011;66904;59.926;30.404;2023-02-28T22:27:03;0.83;;;0.30;;
77738;SDS011;66904;59.926;30.404;2023-02-28T22:32:06;3.58;;;0.47;;
77738;SDS011;66904;59.926;30.404;2023-02-28T22:37:08;1.10;;;0.30;;
77738;SDS011;66904;59.926;30.404;2023-02-28T22:42:09;2.05;;;0.40;;
77738;SDS011;66904;59.926;30.404;2023-02-28T22:47:09;0.75;;;0.30;;
77738;SDS011;66904;59.926;30.404;2023-02-28T22:52:10;1.13;;;0.43;;
77738;SDS011;66904;59.926;30.404;2023-02-28T22:57:10;1.45;;;0.38;;
77738;SDS011;66904;59.926;30.404;2023-02-28T23:02:11;3.30;;;0.50;;
77738;SDS011;66904;59.926;30.404;2023-02-28T23:07:12;0.93;;;0.33;;
77738;SDS011;66904;59.926;30.404;2023-02-28T23:12:13;1.02;;;0.35;;
77738;SDS011;66904;59.926;30.404;2023-02-28T23:17:13;1.40;;;0.47;;
77738;SDS011;66904;59.926;30.404;2023-02-28T23:22:14;1.63;;;0.60;;
77738;SDS011;66904;59.926;30.404;2023-02-28T23:27:17;2.05;;;0.50;;
77738;SDS011;66904;59.926;30.404;2023-02-28T23:32:33;2.47;;;0.63;;
77738;SDS011;66904;59.926;30.404;2023-02-28T23:37:34;1.70;;;0.50;;
77738;SDS011;66904;59.926;30.404;2023-02-28T23:42:36;1.25;;;0.60;;
77738;SDS011;66904;59.926;30.404;2023-02-28T23:52:59;2.47;;;0.50;;
77738;SDS011;66904;59.926;30.404;2023-02-28T23:57:59;0.75;;;0.30;;
